NCAR-RAP Real-Time Weather Data

Output produced by METARs form (08 May 2021  17:29 UTC)
found at http://weather.rap.ucar.edu/surface/
 
KLEX 081654Z 03005KT 10SM CLR 13/01 A3014 RMK AO2 SLP205 T01280011
KLEX 081554Z 36006KT 10SM CLR 12/01 A3015 RMK AO2 SLP209 T01170011
KLEX 081454Z 32005KT 10SM CLR 11/02 A3013 RMK AO2 SLP203 T01060017 50009
KLEX 081444Z 36006KT 10SM FEW001 11/02 A3013 RMK AO2 T01060017
KLEX 081354Z VRB03KT 10SM CLR 09/02 A3013 RMK AO2 SLP204 T00890017
KLEX 081254Z 01009KT 10SM CLR 08/01 A3012 RMK AO2 SLP199 T00780011
KLEX 081154Z 36007KT 10SM CLR 06/01 A3010 RMK AO2 SLP194 70006 T00610011 10100 20044 53018
KLEX 081054Z 36004KT 10SM FEW090 05/02 A3008 RMK AO2 SLP186 T00500022
KLEX 080954Z 34004KT 10SM FEW095 05/03 A3007 RMK AO2 SLP182 T00500033
KLEX 080854Z 35005KT 10SM BKN100 06/03 A3005 RMK AO2 SLP175 T00610028 53012
KLEX 080754Z 35005KT 10SM BKN095 07/04 A3003 RMK AO2 SLP168 T00720044
KLEX 080654Z 35007KT 10SM BKN100 BKN110 08/05 A3002 RMK AO2 SLP165 T00830050
KLEX 080554Z 35010KT 10SM BKN090 OVC110 10/07 A3001 RMK AO2 RAB43E52 SLP161 P0000 60003 T01000067 10122 20094 53011
KLEX 080454Z 29008G17KT 10SM BKN085 BKN110 11/07 A2998 RMK AO2 RAB38E47 SLP152 P0000 T01110067 401720056
KLEX 080354Z 24007KT 10SM BKN085 OVC100 11/07 A2997 RMK AO2 SLP148 T01060067
KLEX 080254Z 24011KT 10SM BKN070 BKN085 11/06 A2998 RMK AO2 SLP151 60003 T01060061 55002
KLEX 080154Z 22007KT 10SM BKN080 OVC095 09/07 A2997 RMK AO2 PK WND 25026/0109 RAE45 SLP149 P0003 T00940067
KLEX 080054Z 27008KT 10SM -RA FEW060 BKN070 OVC110 12/06 A2997 RMK AO2 RAB2357E07B53 SLP151 P0000 T01170056
KLEX 072355Z 00000KT 10SM SCT050 BKN070 BKN080 12/07 A2998 RMK AO2 PK WND 25040/2311 RAB02E36 SLP154 P0003 60003 T01170072 10172 20106 55005
KLEX 072254Z 24008KT 10SM BKN075 OVC095 15/04 A2997 RMK AO2 SLP147 T01500039
KLEX 072154Z 26014G21KT 10SM SCT075 BKN085 BKN110 17/03 A2998 RMK AO2 SLP150 T01670028
KLEX 072054Z 25012G20KT 230V300 10SM FEW070 SCT095 16/02 A3000 RMK AO2 RAB31E40 SLP157 P0000 60000 T01560022 56023
KLEX 071954Z 25010G20KT 10SM FEW065 BKN100 16/02 A3002 RMK AO2 SLP164 T01610022
KLEX 071854Z 29006KT 10SM SCT065 16/03 A3004 RMK AO2 SLP173 T01560028
KLEX 071754Z 28013G19KT 10SM FEW060 SCT070 16/03 A3007 RMK AO2 SLP180 T01560033 10161 20061 58005
KLEX 071654Z 32008KT 10SM BKN050 OVC065 13/04 A3008 RMK AO2 SLP186 T01330039
KLEX 071554Z VRB06KT 10SM CLR 13/03 A3009 RMK AO2 SLP187 T01280033
KLEX 071454Z 29005KT 10SM BKN075 11/03 A3008 RMK AO2 SLP187 T01110028 51012
KLEX 071354Z VRB06KT 10SM FEW060 10/04 A3008 RMK AO2 SLP185 T01000044
KLEX 071254Z 28007KT 10SM FEW011 08/05 A3007 RMK AO2 SLP183 T00780050
KLEX 071238Z 32006KT 9SM SCT009 08/05 A3007 RMK AO2 T00780050
KLEX 071228Z 31005KT 8SM BKN009 07/04 A3006 RMK AO2 T00670044
KLEX 071154Z 31004KT 6SM BR FEW009 06/04 A3005 RMK AO2 SLP175 60000 70001 T00610044 10089 20056 51013
KLEX 071152Z 32005KT 6SM BR SCT009 06/04 A3005 RMK AO2
KLEX 071129Z 29007KT 6SM BR BKN009 06/04 A3004 RMK AO2 T00610044
KLEX 071054Z 29005KT 7SM BKN012 06/04 A3002 RMK AO2 SLP167 T00610039
KLEX 071029Z 29007KT 8SM BKN014 06/04 A3002 RMK AO2 T00610044
KLEX 070954Z 30008KT 10SM SCT016 07/04 A3001 RMK AO2 SLP160 T00670044
KLEX 070854Z 29008KT 10SM OVC024 08/06 A2999 RMK AO2 SLP156 60000 T00830056 55002
KLEX 070754Z 31011KT 10SM FEW010 BKN018 OVC026 08/06 A2999 RMK AO2 SLP153 T00830061
KLEX 070730Z 32010KT 10SM BKN011 08/07 A2999 RMK AO2 T00830067
KLEX 070654Z 33009KT 10SM FEW055 OVC085 09/07 A2999 RMK AO2 RAE01 SLP153 P0000 T00890067
KLEX 070554Z 32007KT 10SM -RA SCT010 BKN017 OVC029 10/08 A3000 RMK AO2 RAB52 SLP158 P0000 60001 T01000078 10156 20100 56006
KLEX 070520Z 30007KT 10SM BKN020 BKN049 OVC080 10/08 A3000 RMK AO2 T01000078
KLEX 070454Z 28009KT 10SM BKN040 OVC049 11/08 A3000 RMK AO2 RAE17 SLP158 P0001 T01060078 401780022
KLEX 070354Z 30005KT 10SM -RA OVC050 11/08 A3001 RMK AO2 RAE0257B47 SLP162 P0000 T01060078
KLEX 070254Z 30006KT 10SM -RA BKN060 OVC075 11/07 A3002 RMK AO2 RAB0157 SLP164 P0000 60000 T01110072 53011
KLEX 070154Z 27013KT 10SM OVC070 13/06 A3000 RMK AO2 SLP159 T01330056
KLEX 070054Z 00000KT 10SM BKN070 OVC085 14/06 A2998 RMK AO2 SLP152 T01440056
KLEX 062354Z 00000KT 10SM BKN060 OVC080 15/06 A2999 RMK AO2 SLP154 T01500056 10178 20144 56010
KLEX 062254Z 30003KT 10SM BKN090 OVC110 16/05 A3000 RMK AO2 SLP158 T01560050
KLEX 062154Z AUTO 00000KT 10SM SCT060 BKN070 17/05 A3001 RMK AO2 SLP161 T01720050
KLEX 062054Z 19005KT 10SM SCT055 17/05 A3002 RMK AO2 SLP164 T01670050 56027
KLEX 061954Z 00000KT 10SM FEW100 17/04 A3004 RMK AO2 SLP172 T01670044
KLEX 061854Z 00000KT 10SM FEW110 16/04 A3007 RMK AO2 SLP182 T01610044
KLEX 061754Z VRB05KT 10SM FEW120 15/04 A3010 RMK AO2 SLP191 T01500039 10150 20056 58021